Latest Weather Observations for Morawa Airport

IDW60801

Issued at 3:02 pm WST Friday 27 February 2015 (issued every 30 minutes, with the page automatically refreshed every 10 minutes)

About weather observations | Map of weather stations | Latest weather observations for WA | Other Formats
Station Details ID: 008296 Name: MORAWA AIRPORT Lat: -29.20 Lon: 116.02 Height: 271.4 m
Data from the previous 72 hours. | See also: Recent months at Morawa Airport
Date/Time
WST
Temp
°C
App
Temp
°C
Dew
Point
Rel
Hum
%
Delta-T
°C
Wind Press
QNH
hPa
Press
MSL
hPa
Rain
since 9 am
mm
Dir
 
Spd
km/h
Gust
km/h
Spd
kts
Gust
kts
27/03:00pm 31.4 29.3 13.6 33 10.8 SSW 17 32 9 17 1009.0 1007.2 0.0
27/02:30pm 29.9 28.1 13.2 36 10.1 SSW 15 22 8 12 1009.2 1007.4 0.0
27/02:00pm 30.1 28.1 13.8 37 9.9 SW 17 28 9 15 1009.7 1007.8 0.0
27/01:30pm 30.3 28.1 14.4 38 9.8 SSW 19 32 10 17 1009.8 1007.9 0.0
27/01:00pm 29.9 27.6 14.0 37 9.7 SSW 19 26 10 14 1009.9 1008.0 0.0
27/12:30pm 28.6 27.1 14.1 41 8.8 SSW 15 28 8 15 1010.0 1008.1 0.0
27/12:00pm 28.9 26.7 14.3 40 8.9 SSW 19 28 10 15 1010.3 1008.4 0.0
27/11:30am 28.2 26.8 15.5 46 7.9 SW 17 26 9 14 1010.3 1008.4 0.0
27/11:00am 27.4 26.8 15.7 48 7.2 SW 13 24 7 13 1010.6 1008.7 0.0
27/10:30am 25.9 25.2 16.5 56 5.9 WSW 15 24 8 13 1010.9 1009.0 0.0
27/10:00am 25.4 25.1 16.5 58 5.5 SW 13 20 7 11 1011.0 1009.1 0.0
27/09:30am 24.4 24.1 16.4 61 5.0 WSW 13 20 7 11 1011.1 1009.2 0.0
27/09:00am 24.5 24.2 16.5 61 5.0 SW 13 19 7 10 1010.7 1008.8 0.0
27/08:30am 23.4 24.2 17.2 68 3.9 SSW 9 17 5 9 1010.8 1008.9 0.0
27/08:00am 22.1 23.2 17.9 77 2.6 WSW 9 13 5 7 1010.6 1008.7 0.0
27/07:30am 21.7 22.8 17.9 79 2.4 SW 9 13 5 7 1010.4 1008.5 0.0
27/07:00am 21.5 22.6 18.1 81 2.1 SW 9 15 5 8 1009.9 1008.0 0.0
27/06:30am 21.2 22.1 17.6 80 2.2 SW 9 15 5 8 1009.3 1007.5 0.0
27/06:00am 21.2 22.1 17.6 80 2.2 SW 9 15 5 8 1009.0 1007.2 0.0
27/05:30am 21.0 21.8 17.2 79 2.4 WSW 9 13 5 7 1009.0 1007.2 0.0
27/05:00am 21.1 21.9 17.3 79 2.4 WSW 9 13 5 7 1008.7 1006.9 0.0
27/04:30am 21.3 22.0 17.1 77 2.6 WSW 9 13 5 7 1008.5 1006.7 0.0
27/04:00am 21.4 21.8 17.2 77 2.6 SW 11 17 6 9 1008.4 1006.6 0.0
27/03:30am 21.6 21.2 17.2 76 2.7 SW 15 20 8 11 1008.2 1006.4 0.0
27/03:00am 21.6 21.3 17.4 77 2.6 SW 15 24 8 13 1008.0 1006.1 0.0
27/02:30am 21.6 21.9 17.8 79 2.4 WSW 13 20 7 11 1008.1 1006.3 0.0
27/02:00am 21.6 21.6 18.0 80 2.3 SW 15 22 8 12 1008.2 1006.4 0.0
27/01:30am 21.4 21.4 18.2 82 2.0 WSW 15 22 8 12 1008.2 1006.4 0.0
27/01:00am 21.6 21.4 18.6 83 1.9 WSW 17 24 9 13 1008.2 1006.4 0.0
27/12:30am 21.4 20.9 18.6 84 1.8 WSW 19 24 10 13 1008.4 1006.6 0.0
27/12:00am 21.5 21.3 18.5 83 1.9 WSW 17 26 9 14 1008.6 1006.8 0.0
 
Date/Time
WST
Temp
°C
App
Temp
°C
Dew
Point
Rel
Hum
%
Delta-T
°C
Wind Press
QNH
hPa
Press
MSL
hPa
Rain
since 9 am
mm
Dir
 
Spd
km/h
Gust
km/h
Spd
kts
Gust
kts
26/11:30pm 21.5 21.8 18.7 84 1.8 WSW 15 22 8 12 1008.9 1007.1 0.0
26/11:00pm 21.8 21.8 19.0 84 1.8 WSW 17 20 9 11 1009.0 1007.2 0.0
26/10:30pm 21.9 22.6 18.9 83 1.9 W 13 19 7 10 1009.2 1007.4 0.0
26/10:00pm 22.3 22.7 18.9 81 2.2 W 15 20 8 11 1009.3 1007.5 0.0
26/09:30pm 22.7 23.0 18.7 78 2.6 WSW 15 20 8 11 1009.2 1007.4 0.0
26/09:00pm 23.3 23.1 18.6 75 3.0 W 17 26 9 14 1009.0 1007.2 0.0
26/08:30pm 24.0 23.4 18.4 71 3.6 WSW 19 28 10 15 1008.8 1007.0 0.0
26/08:00pm 25.1 24.3 18.1 65 4.5 WSW 19 24 10 13 1008.4 1006.6 0.0
26/07:30pm 26.2 25.2 17.6 59 5.5 WSW 19 24 10 13 1007.9 1006.0 0.0
26/07:00pm 27.3 25.5 17.8 56 6.1 WSW 24 35 13 19 1007.5 1005.6 0.0
26/06:30pm 28.9 26.9 17.4 49 7.3 WSW 24 33 13 18 1006.9 1005.0 0.0
26/06:00pm 30.6 27.9 16.6 43 8.9 WSW 26 37 14 20 1006.3 1004.4 0.0
26/05:30pm 31.7 29.1 16.0 38 9.9 WSW 24 35 13 19 1005.9 1004.0 0.0
26/05:00pm 33.0 30.4 15.9 35 10.9 WSW 24 33 13 18 1005.6 1003.8 0.0
26/04:30pm 34.4 31.2 16.3 34 11.6 W 28 37 15 20 1005.5 1003.7 0.0
26/04:00pm 35.1 32.3 16.4 32 12.0 W 26 35 14 19 1005.3 1003.5 0.0
26/03:30pm 35.6 33.0 15.9 31 12.6 W 24 35 13 19 1005.3 1003.5 0.0
26/03:00pm 36.7 34.4 15.8 29 13.4 W 22 33 12 18 1005.4 1003.6 0.0
26/02:30pm 36.8 35.1 15.8 28 13.4 WSW 19 33 10 18 1005.8 1003.9 0.0
26/02:00pm 36.2 34.6 15.9 30 13.0 W 19 30 10 16 1006.0 1004.1 0.0
26/01:30pm 35.8 34.2 16.0 30 12.7 W 19 30 10 16 1006.2 1004.3 0.0
26/01:00pm 35.4 34.2 16.2 32 12.3 WSW 17 26 9 14 1006.6 1004.7 0.0
26/12:30pm 36.4 35.9 17.0 31 12.6 WSW 15 28 8 15 1007.1 1005.2 0.0
26/12:00pm 34.7 34.2 17.0 35 11.5 WSW 15 24 8 13 1007.6 1005.7 0.0
26/11:30am 33.3 32.7 17.5 39 10.2 WSW 17 24 9 13 1007.9 1006.0 0.0
26/11:00am 32.8 33.2 18.2 42 9.6 W 13 20 7 11 1008.2 1006.4 0.0
26/10:30am 31.4 32.2 19.1 48 8.1 WSW 13 20 7 11 1008.4 1006.6 0.0
26/10:00am 30.7 31.5 19.1 50 7.6 WSW 13 22 7 12 1008.6 1006.8 0.0
26/09:30am 29.2 30.8 19.2 54 6.6 WSW 9 15 5 8 1008.8 1007.0 0.0
26/09:00am 28.1 30.2 19.3 58 5.8 WSW 7 15 4 8 1008.9 1007.1 0.0
26/08:30am 27.1 28.8 19.4 62 5.0 W 9 13 5 7 1008.8 1007.0 0.0
26/08:00am 25.6 27.2 19.9 70 3.7 WSW 11 15 6 8 1008.7 1006.9 0.0
26/07:30am 24.6 27.0 20.1 76 2.9 W 7 11 4 6 1008.6 1006.8 0.0
26/07:00am 23.6 26.0 20.1 81 2.3 W 7 9 4 5 1008.6 1006.8 0.0
26/06:30am 22.8 25.2 20.0 84 1.8 W 7 9 4 5 1008.2 1006.4 0.0
26/06:00am 23.1 25.1 19.9 82 2.1 W 9 15 5 8 1007.6 1005.7 0.0
26/05:30am 23.9 25.9 19.2 75 3.0 W 7 11 4 6 1007.5 1005.6 0.0
26/05:00am 24.7 26.0 18.4 68 4.0 W 9 11 5 6 1007.2 1005.3 0.0
26/04:30am 25.1 26.4 17.6 63 4.7 W 7 11 4 6 1007.2 1005.3 0.0
26/04:00am 25.2 26.0 17.4 62 4.9 W 9 13 5 7 1007.2 1005.3 0.0
26/03:30am 25.7 26.7 16.8 58 5.6 WSW 7 9 4 5 1007.2 1005.3 0.0
26/03:00am 26.1 27.0 16.1 54 6.2 WSW 6 6 3 3 1007.5 1005.6 0.0
26/02:30am 26.6 27.9 16.2 52 6.5 W 4 6 2 3 1007.8 1005.9 0.0
26/02:00am 27.2 29.2 15.9 50 7.0 CALM 0 0 0 0 1007.9 1006.0 0.0
26/01:30am 27.5 28.9 16.5 51 6.9 W 4 7 2 4 1008.2 1006.4 0.0
26/01:00am 27.8 28.2 16.4 50 7.2 WSW 9 13 5 7 1007.8 1005.9 0.0
26/12:30am 28.4 28.4 16.3 47 7.6 SW 11 20 6 11 1007.7 1005.8 0.0
26/12:00am 28.8 28.5 16.4 47 7.8 SW 13 19 7 10 1007.9 1006.0 0.0
 
Date/Time
WST
Temp
°C
App
Temp
°C
Dew
Point
Rel
Hum
%
Delta-T
°C
Wind Press
QNH
hPa
Press
MSL
hPa
Rain
since 9 am
mm
Dir
 
Spd
km/h
Gust
km/h
Spd
kts
Gust
kts
25/11:30pm 28.9 28.6 16.5 47 7.8 SW 13 17 7 9 1008.1 1006.3 0.0
25/11:00pm 29.4 29.3 16.9 47 7.9 WSW 13 17 7 9 1008.3 1006.5 0.0
25/10:30pm 29.9 30.2 17.0 45 8.2 SW 11 20 6 11 1008.7 1006.9 0.0
25/10:00pm 29.4 30.5 17.9 50 7.4 WSW 9 15 5 8 1009.1 1007.3 0.0
25/09:30pm 29.9 30.9 17.7 48 7.8 SW 9 11 5 6 1009.2 1007.4 0.0
25/09:00pm 30.2 31.4 17.3 46 8.3 S 7 9 4 5 1009.4 1007.6 0.0
25/08:30pm 30.6 31.3 17.0 44 8.7 SE 9 11 5 6 1009.4 1007.6 0.0
25/08:00pm 31.4 32.1 16.2 40 9.6 SW 7 11 4 6 1008.4 1006.6 0.0
25/07:30pm 31.8 32.8 16.9 40 9.5 W 7 7 4 4 1007.9 1006.0 0.0
25/07:00pm 32.0 31.7 15.5 37 10.4 W 11 17 6 9 1007.4 1005.5 0.0
25/06:30pm 32.1 31.9 15.6 37 10.4 W 11 20 6 11 1007.3 1005.4 0.0
25/06:00pm 31.4 31.0 16.2 40 9.6 SSW 13 17 7 9 1007.0 1005.1 0.0
25/05:30pm 30.3 28.0 16.7 44 8.6 SSW 24 37 13 20 1007.0 1005.1 0.0
25/05:00pm 31.4 29.5 17.7 44 8.9 SW 24 41 13 22 1006.7 1004.8 0.0
25/04:30pm 32.2 29.3 16.1 38 10.2 WNW 26 50 14 27 1006.4 1004.5 0.0
25/04:26pm 33.3 31.9 17.1 38 10.4 NW 20 50 11 27 1006.3 1004.4 0.0
25/04:00pm 33.2 32.5 18.6 42 9.6 NNW 20 35 11 19 1005.8 1003.9 0.0
25/03:55pm 31.6 31.2 20.2 50 7.6 NNW 22 35 12 19 1006.0 1004.1 0.0
25/03:30pm 36.7 37.1 15.2 27 13.6 N 7 19 4 10 1006.2 1004.3 0.0
25/03:00pm 37.0 35.3 13.7 25 14.5 WSW 15 26 8 14 1006.1 1004.2 0.0
25/02:30pm 39.2 39.4 14.3 23 15.7 ENE 6 17 3 9 1006.2 1004.3 0.0
25/02:00pm 38.5 38.0 15.0 25 15.0 NNW 11 22 6 12 1006.5 1004.6 0.0
25/01:30pm 39.2 38.3 14.9 23 15.5 N 13 22 7 12 1006.7 1004.8 0.0
25/01:00pm 37.8 37.2 15.6 27 14.2 NNW 13 24 7 13 1007.2 1005.3 0.0
25/12:30pm 37.7 38.0 16.1 28 13.9 NNE 9 17 5 9 1007.6 1005.7 0.0
25/12:00pm 37.5 37.1 15.3 26 14.2 NNW 11 22 6 12 1008.1 1006.3 0.0
25/11:30am 35.9 36.0 16.6 31 12.4 N 11 20 6 11 1008.5 1006.7 0.0
25/11:00am 35.4 35.0 17.1 33 11.9 NNW 15 24 8 13 1008.8 1007.0 0.0
25/10:30am 34.5 34.2 17.3 36 11.2 NNW 15 22 8 12 1009.1 1007.3 0.0
25/10:00am 32.7 33.3 17.7 40 9.7 N 11 20 6 11 1009.2 1007.4 0.0
25/09:30am 30.8 31.6 18.2 47 8.2 N 11 17 6 9 1009.5 1007.7 0.0
25/09:00am 29.4 31.0 18.2 51 7.3 NE 7 9 4 5 1009.7 1007.8 0.0
25/08:30am 27.9 30.3 18.0 55 6.4 SE 2 6 1 3 1009.8 1007.9 0.0
25/08:00am 26.6 28.8 17.4 57 5.8 S 2 2 1 1 1009.7 1007.8 0.0
25/07:30am 26.2 27.8 17.0 57 5.8 S 4 6 2 3 1009.3 1007.5 0.0
25/07:00am 25.3 26.7 16.4 57 5.5 SW 4 6 2 3 1009.2 1007.4 0.0
25/06:30am 25.2 26.6 16.4 58 5.5 SW 4 4 2 2 1009.1 1007.3 0.0
25/06:00am 25.2 27.0 16.4 58 5.5 SW 2 4 1 2 1008.7 1006.9 0.0
25/05:30am 25.7 26.8 16.5 56 5.7 SW 6 7 3 4 1008.6 1006.8 0.0
25/05:00am 26.1 27.1 16.4 55 6.1 S 6 9 3 5 1008.4 1006.6 0.0
25/04:30am 26.4 27.3 16.1 53 6.4 S 6 6 3 3 1008.5 1006.7 0.0
25/04:00am 26.7 27.9 16.0 52 6.6 E 4 4 2 2 1008.7 1006.9 0.0
25/03:30am 26.6 28.6 15.9 51 6.6 CALM 0 0 0 0 1008.7 1006.9 0.0
25/03:00am 26.6 28.6 15.9 51 6.6 CALM 0 0 0 0 1008.5 1006.7 0.0
25/02:30am 27.2 29.2 15.9 50 7.0 CALM 0 0 0 0 1008.4 1006.6 0.0
25/02:00am 27.4 29.3 15.7 48 7.3 CALM 0 0 0 0 1008.5 1006.7 0.0
25/01:30am 27.9 29.9 15.9 48 7.5 CALM 0 0 0 0 1008.8 1007.0 0.0
25/01:00am 28.2 29.1 16.1 47 7.6 S 6 6 3 3 1009.0 1007.2 0.0
25/12:30am 28.1 28.8 16.1 48 7.5 SE 7 9 4 5 1009.2 1007.4 0.0
25/12:00am 28.6 29.5 16.2 47 7.8 SSW 6 7 3 4 1009.3 1007.5 0.0
 
Date/Time
WST
Temp
°C
App
Temp
°C
Dew
Point
Rel
Hum
%
Delta-T
°C
Wind Press
QNH
hPa
Press
MSL
hPa
Rain
since 9 am
mm
Dir
 
Spd
km/h
Gust
km/h
Spd
kts
Gust
kts
24/11:30pm 28.5 29.2 16.1 47 7.8 SSE 7 9 4 5 1009.4 1007.6 0.0
24/11:00pm 28.8 29.1 16.0 45 8.0 SSW 9 11 5 6 1009.3 1007.5 0.0
24/10:30pm 29.0 28.6 16.2 46 8.0 SW 13 19 7 10 1009.7 1007.8 0.0
24/10:00pm 29.4 28.6 16.2 44 8.3 SSW 15 20 8 11 1009.4 1007.6 0.0
24/09:30pm 29.5 29.4 16.0 44 8.5 S 11 17 6 9 1010.4 1008.5 0.0
24/09:00pm 29.8 28.2 15.9 43 8.7 SSW 19 24 10 13 1009.8 1007.9 0.0
24/08:30pm 30.4 29.6 16.0 41 9.0 WSW 15 26 8 14 1009.7 1007.8 0.0
24/08:00pm 31.6 32.3 17.1 41 9.3 SW 9 15 5 8 1009.1 1007.3 0.0
24/07:30pm 31.6 33.3 17.1 41 9.3 NNW 4 7 2 4 1009.1 1007.3 0.0
24/07:00pm 32.4 34.7 16.7 39 10.0 CALM 0 2 0 1 1010.0 1008.1 0.0
24/06:30pm 32.1 33.1 16.8 40 9.8 E 7 15 4 8 1009.7 1007.8 0.0
24/06:00pm 33.1 32.1 16.5 37 10.6 WSW 17 28 9 15 1008.9 1007.1 0.0
24/05:30pm 34.8 33.2 16.6 33 11.7 WSW 20 30 11 16 1008.0 1006.1 0.0
24/05:00pm 35.7 33.9 15.9 30 12.7 W 20 35 11 19 1007.8 1005.9 0.0
24/04:30pm 36.7 35.3 14.6 26 13.9 W 15 22 8 12 1007.8 1005.9 0.0
24/04:00pm 36.8 34.9 14.1 25 14.2 WNW 17 26 9 14 1007.9 1006.0 0.0
24/03:30pm 37.2 35.4 13.3 24 14.8 WNW 15 26 8 14 1008.1 1006.3 0.0

Other Formats:

Comma delimited format used in spreadsheet applications
http://www.bom.gov.au/fwo/IDW60801/IDW60801.94417.axf

JavaScript Object Notation format (JSON) in row-major order
http://www.bom.gov.au/fwo/IDW60801/IDW60801.94417.json